Aeroporto :
LOGIN :

Iscrizione | Disclaimer

   EN    FR    IT 

 










Sommario :    VFR   VFR Marginale   IFR   IFR Intensivo   IFR Molto Intensivo
Visibilità : 
Base nubi : 
>= 8 km
>= 3000ft
5 / 8 km
1000 / 3000 ft
1500m / 5 km
500 / 1000 ft
800 / 1500m
200 / 500 ft
< 800m
< 200 ft
Simboli :   Temporali  Nebbia  Neve Forte  Precipitazioni Forti  Vento > 20 kt
SIGMETs :   Varie  Temporali  Ghiacco  Turbolenza  Onda orograficha  Ceneri Vulcaniche






- Altitudine del aeroporto : 1548 ft


LKNA - Náměšť Air Base

ULTIMO METAR :
  • 272300Z 11006KT 0900 R13/2000 SN FEW003 OVC008 M00/M01 Q0994 RMK AMB

METARs OBSOLETI :
  • 272230Z 15009KT 0900 SN OVC011 02/M05 Q0994 RMK AMB
  • 272215Z 17009KT 1100 SN OVC013 01/M03 Q0994 RMK AMB
  • 272130Z 11012KT CAVOK 02/M06 Q0993 RMK BLU
  • 272100Z 11015KT CAVOK 02/M06 Q0994 RMK BLU
  • 272030Z 11014KT CAVOK 02/M06 Q0994 NOSIG RMK BLU BLU

TAF TAF LKNA
Valido dal 27 a 18 ore il 28 a 18 ore UTC


271700Z 2718/2818 15008KT 9999 BKN040
BECMG 2721/2723 4000 SN BKN015
PROB30
TEMPO 2723/2806 1500 SN BKN008
BECMG 2802/2804 32016G34KT
BECMG 2807/2809 9999 BKN030
TEMPO 2808/2816 7000 SHSN BKN020TCU



MetMap, La meteo Aeronautica in un colpo d'occhio ! - Copyright ORBIFLY Dicembre 2007 - Disclaimer

ORBIFLY MET'MAP TEAM :

Programmazione e sviluppo : Alexandra Zaïnal
Concezione : Baudouin d'Aumeries
Aiuto per la programmazione : Marc-Olivier Méhu
Supporto tecnico e logistico : Manuel Goepfert
Aiuto per la traduzione : Arnaldo La Scala

Contatto : metmap@orbifly.com




FONTI E CREDITI :

   NOAA